メインページ
METAR-TAF:

METAR-TAF

空港 :

ポワントノワール空港

ポワントノワール, コンゴ

緯度: 04-49S, 経度: 011-54E, 海抜: 17m

現時点の気象観測

当レポートは38分前の02:30(UTC)に作成
南/南西の風 3kt
気温 23°C
湿度 94%
気圧 1012 hPa
視程: 5000m
高度800ftの雲はほとんどない
高度2300ftの千切れ雲あり
靄,

METAR: FCPP 160230Z 21003KT 5000 BR FEW008 BKN023 23/22 Q1012 NOSIG

時間: 04:08 (03:08 UTC)

予報

当レポートは4時間8分前の23:00(UTC)に作成
予報は16日の 00時(UTC)から 16日の 24時(UTC)まで有効
変向風 3kt
視程: 6000m
高度1000ftの雲はほとんどない
確率 30%
16日の 05時(UTC)から 16日の 08時(UTC)まで
視程: 4000m
確率 40%
16日の 12時(UTC)から 16日の 18時(UTC)まで
南/南西の風 10kt

TAF: FCPP 152300Z 1600/1624 VRB03KT 6000 FEW010 PROB30 1605/1608 4000 BR PROB40 1612/1618 20010KT

4,000以上の空港の気象観測と天気予報(METAR報とTAF報)

利用可能な観測所は地図上に黄色い丸と赤い丸で示す。

丸の上にカーソルを重ねると観測所名を参照できる。

次にクリックすると気象観測と天気予報を参照できる。

マップの切り替え:黒色「×」印の緑ボタンをクリックして拡大、「-」印の緑ボタンをクリックして縮小、緑色の三角印をクリックして隣りの地図に切り替え


METAR-TAF: